createdAt,value
2022-10-22T00:02:07.570Z,98.86
2022-10-22T00:04:35.702Z,98.73
2022-10-22T00:07:02.497Z,98.68
2022-10-22T00:09:29.103Z,98.19
2022-10-22T00:11:55.663Z,97.00
2022-10-22T00:14:22.295Z,96.22
2022-10-22T00:16:48.865Z,96.54
2022-10-22T00:19:15.535Z,97.45
2022-10-22T00:21:42.106Z,97.37
2022-10-22T00:24:08.695Z,96.63
2022-10-22T00:26:35.351Z,97.33
2022-10-22T00:29:01.885Z,97.33
2022-10-22T00:31:28.490Z,96.90
2022-10-22T00:33:55.045Z,97.01
2022-10-22T00:36:22.589Z,96.40
2022-10-22T00:38:49.184Z,96.33
2022-10-22T00:41:15.823Z,96.18
2022-10-22T00:44:01.712Z,95.10
2022-10-22T00:46:29.006Z,95.26
2022-10-22T00:48:58.738Z,96.11
2022-10-22T00:51:30.184Z,95.59
2022-10-22T00:54:03.109Z,95.52
2022-10-22T00:56:29.845Z,96.12
2022-10-22T00:59:00.635Z,96.11
2022-10-22T01:01:31.846Z,95.68
2022-10-22T01:03:59.119Z,96.13
2022-10-22T01:06:32.056Z,96.29
2022-10-22T01:09:16.374Z,95.57
2022-10-22T01:12:17.067Z,95.16
2022-10-22T01:15:14.346Z,96.33
2022-10-22T01:18:14.184Z,98.68
2022-10-22T01:20:52.737Z,99.13
2022-10-22T01:23:31.226Z,98.27
2022-10-22T01:26:21.411Z,97.51
2022-10-22T01:29:02.990Z,96.16
2022-10-22T01:31:36.331Z,95.95
2022-10-22T01:34:04.420Z,96.87
2022-10-22T01:36:33.109Z,97.14
2022-10-22T01:39:01.873Z,97.27
2022-10-22T01:41:29.706Z,96.51
2022-10-22T01:43:56.502Z,97.65
2022-10-22T01:46:25.771Z,97.27
2022-10-22T01:48:59.753Z,97.09
2022-10-22T01:51:52.093Z,96.39
2022-10-22T01:54:25.438Z,95.88
2022-10-22T01:57:07.686Z,96.82
2022-10-22T01:59:58.048Z,96.99
2022-10-22T02:02:28.984Z,96.58
2022-10-22T02:05:04.700Z,96.22
2022-10-22T02:07:36.110Z,96.82
2022-10-22T02:10:04.163Z,97.85
2022-10-22T02:12:32.436Z,99.17
2022-10-22T02:15:01.413Z,99.10
2022-10-22T02:17:30.566Z,97.57
2022-10-22T02:20:01.599Z,96.87
2022-10-22T02:22:28.755Z,97.37
2022-10-22T02:24:56.593Z,96.90
2022-10-22T02:27:45.303Z,97.39
2022-10-22T02:32:55.239Z,97.47
2022-10-22T02:35:24.666Z,98.03
2022-10-22T02:37:53.999Z,97.18
2022-10-22T02:40:21.153Z,95.60
2022-10-22T02:42:49.667Z,96.15
2022-10-22T02:45:17.518Z,96.26
2022-10-22T02:47:44.533Z,96.28
2022-10-22T02:50:11.161Z,96.04
2022-10-22T02:52:38.234Z,95.24
2022-10-22T02:55:06.317Z,96.07
2022-10-22T02:57:33.251Z,96.41
2022-10-22T02:59:59.920Z,95.96
2022-10-22T03:02:26.471Z,95.10
2022-10-22T03:04:52.990Z,96.39
2022-10-22T03:07:19.661Z,97.02
2022-10-22T03:09:46.593Z,97.54
2022-10-22T03:12:13.154Z,99.04
2022-10-22T03:14:39.686Z,99.20
2022-10-22T03:17:06.239Z,99.90
2022-10-22T03:19:32.803Z,100.00
2022-10-22T03:22:03.470Z,99.84
2022-10-22T03:24:39.999Z,98.95
2022-10-22T03:27:06.721Z,98.64
2022-10-22T03:29:37.506Z,98.49
2022-10-22T03:32:04.344Z,98.21
2022-10-22T03:34:30.935Z,97.02
2022-10-22T03:36:59.801Z,96.21
2022-10-22T03:39:29.498Z,95.49
2022-10-22T03:41:56.435Z,95.61
2022-10-22T03:44:24.051Z,96.02
2022-10-22T03:46:50.854Z,96.21
2022-10-22T03:49:17.422Z,96.31
2022-10-22T03:51:44.249Z,96.60
2022-10-22T03:54:10.994Z,96.61
2022-10-22T03:56:37.614Z,95.51
2022-10-22T03:59:04.742Z,94.94
2022-10-22T04:01:31.734Z,95.31
2022-10-22T04:03:58.793Z,95.84
2022-10-22T04:06:25.972Z,95.05
2022-10-22T04:08:52.749Z,94.72
2022-10-22T04:11:19.338Z,92.80
2022-10-22T04:13:45.889Z,92.96
2022-10-22T04:16:18.414Z,92.75
2022-10-22T04:18:46.151Z,93.15
2022-10-22T04:21:14.729Z,94.04
2022-10-22T04:23:51.459Z,95.23
2022-10-22T04:26:19.562Z,95.93
2022-10-22T04:28:47.506Z,95.49
2022-10-22T04:31:17.903Z,96.63
2022-10-22T04:33:44.750Z,96.27
2022-10-22T04:36:14.319Z,96.07
2022-10-22T04:38:41.947Z,96.97
2022-10-22T04:41:17.231Z,96.59
2022-10-22T04:43:44.400Z,96.03
2022-10-22T04:46:12.083Z,95.92
2022-10-22T04:48:40.385Z,94.74
2022-10-22T04:51:09.126Z,93.58
2022-10-22T04:53:36.320Z,94.42
2022-10-22T04:56:20.768Z,93.66
2022-10-22T04:58:58.335Z,94.66
2022-10-22T05:01:31.011Z,93.77
2022-10-22T05:04:00.035Z,93.96
2022-10-22T05:06:28.615Z,93.74
2022-10-22T05:08:57.973Z,92.37
2022-10-22T05:11:30.736Z,92.47
2022-10-22T05:13:58.526Z,91.59
2022-10-22T05:16:25.323Z,90.95
2022-10-22T05:18:51.894Z,89.96
2022-10-22T05:21:20.521Z,89.95
2022-10-22T05:23:49.345Z,91.15
2022-10-22T05:26:18.841Z,91.76
2022-10-22T05:28:46.563Z,92.04
2022-10-22T05:31:13.974Z,92.10
2022-10-22T05:33:41.604Z,92.21
2022-10-22T05:36:10.687Z,92.20
2022-10-22T05:38:37.295Z,92.03
2022-10-22T05:41:12.454Z,91.33
2022-10-22T05:43:39.545Z,91.72
2022-10-22T05:46:08.459Z,91.62
2022-10-22T05:48:35.775Z,91.73
2022-10-22T05:51:13.187Z,91.18
2022-10-22T05:53:42.269Z,89.50
2022-10-22T05:56:13.021Z,87.96
2022-10-22T05:58:40.022Z,88.17
2022-10-22T06:01:28.493Z,87.02
2022-10-22T06:03:59.517Z,86.26
2022-10-22T06:06:34.321Z,84.57
2022-10-22T06:09:15.045Z,83.47
2022-10-22T06:11:41.700Z,82.68
2022-10-22T06:14:09.702Z,82.56
2022-10-22T06:16:36.245Z,82.60
2022-10-22T06:19:03.220Z,82.14
2022-10-22T06:21:31.166Z,82.31
2022-10-22T06:23:59.464Z,80.25
2022-10-22T06:26:26.413Z,80.19
2022-10-22T06:28:53.116Z,79.38
2022-10-22T06:31:19.827Z,78.46
2022-10-22T06:33:46.412Z,77.61
2022-10-22T06:36:15.447Z,75.94
2022-10-22T06:38:42.930Z,75.19
2022-10-22T06:41:12.437Z,74.90
2022-10-22T06:43:40.002Z,72.28
2022-10-22T06:46:10.013Z,72.20
2022-10-22T06:48:38.018Z,70.46
2022-10-22T06:51:07.395Z,70.48
2022-10-22T06:53:34.260Z,69.08
2022-10-22T06:56:13.531Z,66.75
2022-10-22T06:58:40.143Z,65.58
2022-10-22T07:01:12.912Z,65.17
2022-10-22T07:03:40.985Z,63.75
2022-10-22T07:06:10.630Z,63.52
2022-10-22T07:08:38.261Z,63.39
2022-10-22T07:11:10.523Z,62.19
2022-10-22T07:13:37.523Z,63.24
2022-10-22T07:16:05.268Z,61.79
2022-10-22T07:18:34.077Z,62.24
2022-10-22T07:21:01.002Z,62.28
2022-10-22T07:23:28.148Z,61.66
2022-10-22T07:28:27.984Z,61.46
2022-10-22T07:30:54.641Z,61.96
2022-10-22T07:33:21.341Z,65.75
2022-10-22T07:35:47.916Z,65.32
2022-10-22T07:38:14.473Z,64.60
2022-10-22T07:40:41.081Z,62.15
2022-10-22T07:43:07.750Z,61.56
2022-10-22T07:45:34.442Z,58.60
2022-10-22T07:48:01.883Z,58.12
2022-10-22T07:50:28.731Z,58.13
2022-10-22T07:52:57.457Z,58.12
2022-10-22T07:55:25.188Z,56.81
2022-10-22T07:57:51.878Z,55.48
2022-10-22T08:00:21.704Z,54.37
2022-10-22T08:02:51.234Z,53.58
2022-10-22T08:05:18.110Z,52.41
2022-10-22T08:07:44.638Z,51.54
2022-10-22T08:10:12.389Z,51.04
2022-10-22T08:12:41.664Z,51.25
2022-10-22T08:15:09.198Z,51.82
2022-10-22T08:17:35.960Z,52.03
2022-10-22T08:20:02.683Z,51.21
2022-10-22T08:22:29.231Z,50.91
2022-10-22T08:24:55.820Z,50.47
2022-10-22T08:27:22.564Z,50.41
2022-10-22T08:29:49.281Z,50.97
2022-10-22T08:32:15.927Z,50.43
2022-10-22T08:34:42.481Z,51.14
2022-10-22T08:37:10.534Z,51.15
2022-10-22T08:39:37.105Z,51.37
2022-10-22T08:42:25.395Z,51.13
2022-10-22T08:45:01.374Z,49.85
2022-10-22T08:47:54.560Z,50.40
2022-10-22T08:50:33.971Z,49.96
2022-10-22T08:53:05.222Z,50.05
2022-10-22T08:55:36.614Z,49.76
2022-10-22T08:58:04.103Z,50.04
2022-10-22T09:00:46.128Z,50.26
2022-10-22T09:03:48.759Z,50.03
2022-10-22T09:06:26.623Z,52.31
2022-10-22T09:08:55.898Z,52.57
2022-10-22T09:11:35.180Z,51.95
2022-10-22T09:14:03.002Z,50.49
2022-10-22T09:16:48.115Z,50.51
2022-10-22T09:19:35.188Z,49.22
2022-10-22T09:22:28.831Z,48.44
2022-10-22T09:25:17.244Z,48.65
2022-10-22T09:27:44.130Z,47.85
2022-10-22T09:30:33.974Z,47.78
2022-10-22T09:33:02.176Z,47.47
2022-10-22T09:35:33.159Z,47.46
2022-10-22T09:38:07.469Z,48.81
2022-10-22T09:40:46.702Z,48.68
2022-10-22T09:43:14.975Z,48.35
2022-10-22T09:45:42.635Z,47.50
2022-10-22T09:48:26.443Z,46.34
2022-10-22T09:50:59.354Z,45.53
2022-10-22T09:53:30.151Z,46.05
2022-10-22T09:56:01.268Z,46.40
2022-10-22T09:58:28.646Z,47.33
2022-10-22T10:00:58.373Z,46.94
2022-10-22T10:03:28.949Z,46.61
2022-10-22T10:06:01.578Z,46.37
2022-10-22T10:08:31.772Z,46.46
2022-10-22T10:11:57.256Z,46.33
2022-10-22T10:14:31.562Z,46.19
2022-10-22T10:17:03.172Z,45.91
2022-10-22T10:20:01.389Z,45.28
2022-10-22T10:22:33.443Z,45.49
2022-10-22T10:25:23.938Z,46.55
2022-10-22T10:28:15.171Z,47.10
2022-10-22T10:31:31.331Z,47.59
2022-10-22T10:34:12.977Z,46.63
2022-10-22T10:37:05.954Z,46.29
2022-10-22T10:39:32.464Z,46.83
2022-10-22T10:42:17.662Z,46.00
2022-10-22T10:45:03.164Z,46.20
2022-10-22T10:47:41.998Z,45.92
2022-10-22T10:50:17.904Z,46.35
2022-10-22T10:52:52.526Z,45.84
2022-10-22T10:55:28.686Z,45.91
2022-10-22T10:58:13.445Z,45.63
2022-10-22T11:00:53.794Z,44.15
2022-10-22T11:03:47.040Z,44.50
2022-10-22T11:06:19.406Z,44.71
2022-10-22T11:09:27.347Z,44.56
2022-10-22T11:12:02.837Z,43.89
2022-10-22T11:14:40.017Z,42.76
2022-10-22T11:17:18.498Z,42.17
2022-10-22T11:20:01.036Z,40.95
2022-10-22T11:22:44.504Z,42.36
2022-10-22T11:25:25.040Z,44.26
2022-10-22T11:28:07.859Z,44.78
2022-10-22T11:30:40.907Z,42.91
2022-10-22T11:33:12.634Z,42.40
2022-10-22T11:35:42.697Z,42.76
2022-10-22T11:38:14.840Z,41.62
2022-10-22T11:41:09.619Z,41.81
2022-10-22T11:43:52.545Z,41.34
2022-10-22T11:46:19.028Z,41.40
2022-10-22T11:49:03.241Z,41.22
2022-10-22T11:51:38.916Z,41.60
2022-10-22T11:54:44.056Z,41.53
2022-10-22T11:57:16.619Z,42.10
2022-10-22T11:59:48.056Z,42.95
2022-10-22T12:02:41.307Z,42.02
2022-10-22T12:05:24.448Z,42.33
2022-10-22T12:07:57.187Z,41.73
2022-10-22T12:10:34.057Z,41.54
2022-10-22T12:13:11.665Z,41.78
2022-10-22T12:15:48.640Z,41.32
2022-10-22T12:18:16.446Z,42.52
2022-10-22T12:20:43.246Z,42.32
2022-10-22T12:23:12.514Z,41.88
2022-10-22T12:25:39.371Z,41.55
2022-10-22T12:28:12.846Z,41.70
2022-10-22T12:30:39.413Z,41.81
2022-10-22T12:33:07.814Z,41.91
2022-10-22T12:35:43.027Z,41.77
2022-10-22T12:38:18.305Z,43.36
2022-10-22T12:40:48.626Z,42.40
2022-10-22T12:43:33.848Z,42.21
2022-10-22T12:46:00.856Z,41.96
2022-10-22T12:48:30.981Z,42.78
2022-10-22T12:51:03.967Z,43.57
2022-10-22T12:53:39.534Z,43.60
2022-10-22T12:56:10.868Z,42.69
2022-10-22T12:58:39.302Z,42.62
2022-10-22T13:01:06.600Z,42.43
2022-10-22T13:03:38.768Z,41.69
2022-10-22T13:06:18.402Z,43.29
2022-10-22T13:08:55.189Z,42.40
2022-10-22T13:11:21.861Z,42.27
2022-10-22T13:13:48.486Z,42.31
2022-10-22T13:16:19.585Z,42.30
2022-10-22T13:18:47.318Z,42.04
2022-10-22T13:21:22.991Z,42.47
2022-10-22T13:24:01.211Z,42.73
2022-10-22T13:26:37.045Z,43.09
2022-10-22T13:29:11.929Z,43.22
2022-10-22T13:31:46.328Z,43.07
2022-10-22T13:34:18.137Z,42.24
2022-10-22T13:36:44.929Z,42.20
2022-10-22T13:39:23.123Z,42.69
2022-10-22T13:41:50.621Z,42.68
2022-10-22T13:44:20.051Z,42.68
2022-10-22T13:46:48.484Z,42.71
2022-10-22T13:49:18.206Z,42.66
2022-10-22T13:51:45.457Z,42.97
2022-10-22T13:54:18.494Z,43.11
2022-10-22T13:56:45.198Z,42.46
2022-10-22T13:59:11.779Z,42.76
2022-10-22T14:01:39.178Z,43.36
2022-10-22T14:04:08.397Z,43.50
2022-10-22T14:09:11.397Z,44.28
2022-10-22T14:11:38.034Z,44.22
2022-10-22T14:14:08.668Z,43.94
2022-10-22T14:16:37.085Z,44.00
2022-10-22T14:19:04.901Z,44.57
2022-10-22T14:21:36.308Z,44.18
2022-10-22T14:24:03.112Z,44.04
2022-10-22T14:26:33.156Z,44.32
2022-10-22T14:29:16.203Z,45.10
2022-10-22T14:31:44.646Z,44.93
2022-10-22T14:34:13.656Z,45.43
2022-10-22T14:36:40.367Z,45.57
2022-10-22T14:39:07.004Z,45.75
2022-10-22T14:41:33.794Z,45.73
2022-10-22T14:44:00.699Z,46.22
2022-10-22T14:46:27.428Z,46.24
2022-10-22T14:48:53.983Z,46.38
2022-10-22T14:51:21.683Z,46.81
2022-10-22T14:53:48.666Z,47.08
2022-10-22T14:56:18.560Z,47.65
2022-10-22T14:58:45.818Z,48.03
2022-10-22T15:01:12.736Z,48.84
2022-10-22T15:03:39.407Z,49.29
2022-10-22T15:06:06.691Z,49.73
2022-10-22T15:08:33.426Z,50.21
2022-10-22T15:11:08.907Z,50.62
2022-10-22T15:13:35.706Z,50.81
2022-10-22T15:16:10.579Z,51.13
2022-10-22T15:18:37.596Z,51.55
2022-10-22T15:21:07.727Z,52.32
2022-10-22T15:23:35.829Z,52.56
2022-10-22T15:26:02.378Z,52.83
2022-10-22T15:28:28.922Z,53.07
2022-10-22T15:30:57.649Z,53.51
2022-10-22T15:33:25.054Z,53.88
2022-10-22T15:35:51.716Z,55.07
2022-10-22T15:38:18.515Z,56.10
2022-10-22T15:40:45.587Z,56.37
2022-10-22T15:43:12.399Z,56.51
2022-10-22T15:45:39.787Z,57.62
2022-10-22T15:48:06.510Z,57.18
2022-10-22T15:50:37.786Z,57.07
2022-10-22T15:53:04.351Z,57.39
2022-10-22T15:55:30.890Z,57.14
2022-10-22T15:57:59.365Z,57.07
2022-10-22T16:00:28.551Z,57.41
2022-10-22T16:02:55.212Z,58.97
2022-10-22T16:05:21.861Z,59.61
2022-10-22T16:07:48.494Z,59.58
2022-10-22T16:10:15.118Z,60.18
2022-10-22T16:12:42.685Z,59.92
2022-10-22T16:15:09.981Z,59.78
2022-10-22T16:17:36.587Z,59.93
2022-10-22T16:20:03.616Z,60.12
2022-10-22T16:22:30.218Z,61.06
2022-10-22T16:24:56.771Z,61.05
2022-10-22T16:27:23.319Z,60.69
2022-10-22T16:29:50.038Z,61.05
2022-10-22T16:32:17.483Z,61.90
2022-10-22T16:34:44.083Z,61.59
2022-10-22T16:37:10.670Z,62.05
2022-10-22T16:39:37.664Z,62.01
2022-10-22T16:42:04.938Z,62.63
2022-10-22T16:44:31.506Z,63.80
2022-10-22T16:46:58.052Z,63.89
2022-10-22T16:49:24.739Z,64.05
2022-10-22T16:51:51.336Z,64.54
2022-10-22T16:54:17.948Z,64.01
2022-10-22T16:56:44.531Z,64.30
2022-10-22T16:59:11.107Z,64.61
2022-10-22T17:01:40.920Z,64.54
2022-10-22T17:04:08.674Z,64.51
2022-10-22T17:06:35.476Z,64.93
2022-10-22T17:09:02.125Z,65.65
2022-10-22T17:11:34.623Z,65.70
2022-10-22T17:14:02.101Z,66.17
2022-10-22T17:16:28.685Z,66.05
2022-10-22T17:18:55.923Z,66.15
2022-10-22T17:21:23.497Z,66.58
2022-10-22T17:23:55.341Z,66.83
2022-10-22T17:26:23.056Z,66.68
2022-10-22T17:28:49.730Z,66.90
2022-10-22T17:31:18.154Z,67.20
2022-10-22T17:33:45.773Z,68.01
2022-10-22T17:36:13.712Z,67.92
2022-10-22T17:38:41.940Z,68.30
2022-10-22T17:41:12.556Z,68.91
2022-10-22T17:43:41.367Z,68.94
2022-10-22T17:46:13.437Z,69.90
2022-10-22T17:48:40.141Z,69.73
2022-10-22T17:51:12.321Z,70.09
2022-10-22T17:53:48.356Z,69.46
2022-10-22T17:56:17.475Z,70.16
2022-10-22T17:58:44.317Z,70.31
2022-10-22T18:01:20.586Z,70.73
2022-10-22T18:03:47.505Z,71.04
2022-10-22T18:06:14.496Z,70.94
2022-10-22T18:08:41.239Z,71.57
2022-10-22T18:11:08.956Z,71.88
2022-10-22T18:13:36.358Z,71.98
2022-10-22T18:16:03.075Z,71.76
2022-10-22T18:18:29.654Z,71.80
2022-10-22T18:20:56.473Z,72.00
2022-10-22T18:23:23.076Z,71.94
2022-10-22T18:25:49.793Z,71.88
2022-10-22T18:28:17.926Z,72.28
2022-10-22T18:30:45.754Z,72.16
2022-10-22T18:33:14.839Z,72.33
2022-10-22T18:35:41.708Z,73.29
2022-10-22T18:38:09.521Z,72.86
2022-10-22T18:40:38.732Z,72.85
2022-10-22T18:43:05.336Z,74.12
2022-10-22T18:45:32.838Z,74.88
2022-10-22T18:48:00.767Z,74.28
2022-10-22T18:50:27.371Z,75.33
2022-10-22T18:52:54.662Z,75.26
2022-10-22T18:55:21.212Z,75.27
2022-10-22T18:57:47.797Z,75.36
2022-10-22T19:00:14.820Z,74.28
2022-10-22T19:02:42.815Z,74.32
2022-10-22T19:05:09.630Z,74.52
2022-10-22T19:07:39.206Z,74.90
2022-10-22T19:10:06.446Z,74.94
2022-10-22T19:12:33.064Z,74.92
2022-10-22T19:14:59.656Z,75.05
2022-10-22T19:17:26.216Z,74.68
2022-10-22T19:19:52.781Z,74.99
2022-10-22T19:22:20.867Z,75.76
2022-10-22T19:24:50.526Z,76.16
2022-10-22T19:27:18.413Z,76.57
2022-10-22T19:29:46.206Z,76.87
2022-10-22T19:32:13.443Z,77.20
2022-10-22T19:34:41.200Z,77.33
2022-10-22T19:37:08.117Z,77.11
2022-10-22T19:39:34.830Z,76.57
2022-10-22T19:42:01.711Z,76.95
2022-10-22T19:44:28.239Z,77.55
2022-10-22T19:46:54.799Z,77.48
2022-10-22T19:49:22.976Z,77.77
2022-10-22T19:51:49.751Z,77.08
2022-10-22T19:54:18.614Z,77.45
2022-10-22T19:56:46.469Z,77.43
2022-10-22T19:59:14.774Z,77.95
2022-10-22T20:01:41.695Z,77.31
2022-10-22T20:04:09.776Z,77.34
2022-10-22T20:06:36.359Z,77.60
2022-10-22T20:09:02.989Z,77.88
2022-10-22T20:11:30.060Z,77.54
2022-10-22T20:13:57.295Z,77.42
2022-10-22T20:16:28.446Z,77.48
2022-10-22T20:18:55.831Z,77.96
2022-10-22T20:21:22.480Z,78.63
2022-10-22T20:23:52.904Z,77.94
2022-10-22T20:26:20.195Z,78.89
2022-10-22T20:28:46.867Z,78.60
2022-10-22T20:31:16.967Z,78.54
2022-10-22T20:33:43.592Z,78.61
2022-10-22T20:36:15.828Z,79.19
2022-10-22T20:38:43.280Z,78.87
2022-10-22T20:41:16.036Z,78.17
2022-10-22T20:43:49.559Z,78.73
2022-10-22T20:46:23.110Z,79.85
2022-10-22T20:48:54.767Z,80.22
2022-10-22T20:51:21.317Z,79.56
2022-10-22T20:53:48.306Z,79.51
2022-10-22T20:56:16.469Z,80.06
2022-10-22T20:58:48.040Z,80.20
2022-10-22T21:01:21.749Z,81.56
2022-10-22T21:03:50.442Z,81.69
2022-10-22T21:06:17.493Z,81.45
2022-10-22T21:08:44.089Z,81.18
2022-10-22T21:11:10.651Z,81.16
2022-10-22T21:13:37.322Z,81.02
2022-10-22T21:16:12.113Z,81.61
2022-10-22T21:18:39.407Z,81.58
2022-10-22T21:21:07.460Z,81.58
2022-10-22T21:23:35.954Z,81.39
2022-10-22T21:26:02.578Z,80.74
2022-10-22T21:30:56.691Z,80.97
2022-10-22T21:33:23.281Z,80.87
2022-10-22T21:35:54.758Z,80.83
2022-10-22T21:38:22.841Z,81.25
2022-10-22T21:40:49.863Z,81.43
2022-10-22T21:43:17.029Z,80.97
2022-10-22T21:45:44.205Z,80.83
2022-10-22T21:48:13.167Z,80.46
2022-10-22T21:50:43.714Z,80.31
2022-10-22T21:53:12.066Z,82.83
2022-10-22T21:55:39.835Z,82.65
2022-10-22T21:58:07.320Z,83.05
2022-10-22T22:00:34.616Z,82.78
2022-10-22T22:03:01.353Z,82.76
2022-10-22T22:05:28.410Z,82.48
2022-10-22T22:07:54.966Z,81.93
2022-10-22T22:10:21.595Z,82.21
2022-10-22T22:12:48.151Z,81.74
2022-10-22T22:15:14.839Z,81.07
2022-10-22T22:17:41.379Z,81.00
2022-10-22T22:20:10.097Z,81.26
2022-10-22T22:22:36.905Z,81.05
2022-10-22T22:25:03.626Z,81.36
2022-10-22T22:27:30.233Z,81.26
2022-10-22T22:29:56.792Z,81.74
2022-10-22T22:32:23.417Z,82.44
2022-10-22T22:34:49.979Z,82.58
2022-10-22T22:37:16.544Z,82.49
2022-10-22T22:39:43.102Z,82.62
2022-10-22T22:42:09.643Z,82.23
2022-10-22T22:44:36.195Z,81.70
2022-10-22T22:47:02.750Z,82.12
2022-10-22T22:49:29.289Z,82.72
2022-10-22T22:51:55.931Z,82.25
2022-10-22T22:54:22.489Z,82.15
2022-10-22T22:56:50.143Z,82.56
2022-10-22T22:59:16.684Z,82.89
2022-10-22T23:01:43.336Z,83.27
2022-10-22T23:04:18.963Z,83.36
2022-10-22T23:06:46.222Z,83.86
2022-10-22T23:09:14.086Z,83.66
2022-10-22T23:11:41.974Z,83.61
2022-10-22T23:14:11.450Z,84.77
2022-10-22T23:16:41.548Z,85.56
2022-10-22T23:19:08.336Z,85.32
2022-10-22T23:21:37.753Z,85.34
2022-10-22T23:24:07.811Z,85.81
2022-10-22T23:26:37.293Z,85.77
2022-10-22T23:29:06.787Z,85.56
2022-10-22T23:31:33.847Z,84.25
2022-10-22T23:34:00.618Z,83.93
2022-10-22T23:36:27.259Z,84.04
2022-10-22T23:38:54.442Z,84.38
2022-10-22T23:41:21.053Z,84.90
2022-10-22T23:43:47.565Z,85.09
2022-10-22T23:46:14.299Z,84.78
2022-10-22T23:48:41.187Z,84.90
2022-10-22T23:51:11.186Z,85.20
2022-10-22T23:53:38.163Z,85.07
2022-10-22T23:56:07.205Z,85.54
2022-10-22T23:58:35.170Z,85.62
